Montmartre, Canada
Current Conditions -  °F | °C
As of 9:00 PM on Sunday 21 Dec 2014 (Local Time) from CYQR Reporting Station
Overcast Overcast  
Wind Chill: 17°   Ceiling: 7700
Heat Index: 25°   Visibility: 15mi
Dew Point: 23°   Wind: 7mph
Humidity: 93%   Direction: 90°E
Pressure: 29.4"   Gusts: NA
Location:  50.22°N, 103.45°W
Report Text: CYQR 220300Z 09006KT 15SM OVC077 M04/M05 A2940 RMK AC8 SLP991
Loading
Personal Weather Stations






























Interactive Weather Map New forecast layout! Learn more

10-Day Weather Forecast

Advertisements
Track Severe Weather on mobile